Time;durP1;ratioP1;P1;durP2;ratioP2;P2;SDS_P1;SDS_P2;PMS_P1;PMS_P2;Temp;Humidity;BMP_temperature;BMP_pressure;BME280_temperature;BME280_humidity;BME280_pressure;Samples;Min_cycle;Max_cycle;Signal;HPM_P1;HPM_P2
2021/12/05 00:24:03;;;;;;;29.85;20.48;;;2.00;99.90;;;;;;5059559;28;20033;-61
2021/12/05 00:26:33;;;;;;;30.17;20.45;;;2.00;99.90;;;;;;5071953;28;20036;-61
2021/12/05 00:45:39;;;;;;;26.90;20.42;;;2.10;99.90;;;;;;5074990;28;20035;-60
2021/12/05 00:48:26;;;;;;;28.33;21.77;;;2.20;99.90;;;;;;5075123;28;20040;-60
2021/12/05 00:57:05;;;;;;;28.23;21.17;;;2.10;99.90;;;;;;5053057;28;20060;-61
2021/12/05 01:15:05;;;;;;;27.70;20.38;;;2.10;99.90;;;;;;5095387;28;20449;-61
2021/12/05 01:17:44;;;;;;;26.35;20.05;;;2.10;99.90;;;;;;5094654;28;20024;-60
2021/12/05 01:20:14;;;;;;;25.88;19.33;;;2.10;99.90;;;;;;5094651;28;20043;-61
2021/12/05 01:22:46;;;;;;;25.27;19.70;;;2.10;99.90;;;;;;5095317;28;20023;-60
2021/12/05 01:25:28;;;;;;;24.95;20.33;;;2.10;99.90;;;;;;5094772;28;20124;-61
2021/12/05 01:33:13;;;;;;;23.88;19.10;;;2.10;99.90;;;;;;5095002;28;20024;-61
2021/12/05 01:35:54;;;;;;;26.45;18.60;;;2.10;99.90;;;;;;5095022;28;20028;-61
2021/12/05 02:35:28;;;;;;;25.05;19.23;;;2.20;99.90;;;;;;5073618;28;20060;-60
2021/12/05 02:43:09;;;;;;;23.70;19.60;;;2.20;99.90;;;;;;5073436;28;20021;-61
2021/12/05 02:45:40;;;;;;;25.42;19.08;;;2.20;99.90;;;;;;5072492;28;20090;-61
2021/12/05 02:48:08;;;;;;;26.02;19.92;;;2.30;99.90;;;;;;5073474;28;20107;-61
2021/12/05 02:50:37;;;;;;;28.88;21.63;;;2.30;99.90;;;;;;5072625;28;20325;-61
2021/12/05 02:53:17;;;;;;;31.30;22.65;;;2.30;99.90;;;;;;5073241;28;20032;-61
2021/12/05 02:55:44;;;;;;;31.40;23.25;;;2.30;99.90;;;;;;5073059;28;20029;-61
2021/12/05 03:03:28;;;;;;;31.38;23.55;;;2.30;99.90;;;;;;5072387;28;20025;-61
2021/12/05 03:06:14;;;;;;;28.08;21.95;;;2.30;99.90;;;;;;5071958;28;20086;-61
2021/12/05 03:08:40;;;;;;;31.40;23.50;;;2.30;99.90;;;;;;5072383;28;20033;-61
2021/12/05 03:11:07;;;;;;;31.58;24.05;;;2.40;99.90;;;;;;5072847;28;20036;-61
2021/12/05 03:13:35;;;;;;;32.15;24.38;;;2.30;99.90;;;;;;5072104;28;20025;-61
2021/12/05 03:16:01;;;;;;;30.27;22.77;;;2.40;99.90;;;;;;5072577;28;20027;-62
2021/12/05 03:18:27;;;;;;;30.83;23.52;;;2.40;99.90;;;;;;5087413;28;20380;-61
2021/12/05 03:20:53;;;;;;;30.92;23.83;;;2.40;99.90;;;;;;5092956;28;20024;-61
2021/12/05 03:23:18;;;;;;;28.60;22.23;;;2.40;99.90;;;;;;5092367;28;20549;-61
2021/12/05 03:25:44;;;;;;;27.17;21.95;;;2.40;99.90;;;;;;5092692;28;20024;-61
2021/12/05 03:28:10;;;;;;;32.00;23.92;;;2.40;99.90;;;;;;5092974;28;20483;-61
2021/12/05 03:30:36;;;;;;;29.27;22.83;;;2.40;99.90;;;;;;5092201;28;20031;-61
2021/12/05 03:33:03;;;;;;;29.20;22.90;;;2.40;99.90;;;;;;5092635;28;20031;-61
2021/12/05 03:35:30;;;;;;;28.83;23.63;;;2.30;99.90;;;;;;5092099;28;20102;-61
2021/12/05 03:37:58;;;;;;;33.80;23.70;;;2.30;99.90;;;;;;5092711;28;20122;-61
2021/12/05 03:40:27;;;;;;;29.33;22.40;;;2.30;99.90;;;;;;5092127;28;20024;-61
2021/12/05 03:42:57;;;;;;;30.83;22.95;;;2.30;99.90;;;;;;5092707;28;20051;-61
2021/12/05 03:45:27;;;;;;;30.33;23.52;;;2.30;99.90;;;;;;5090570;28;20044;-61
2021/12/05 03:47:56;;;;;;;35.75;22.92;;;2.30;99.90;;;;;;5092668;28;20059;-61
2021/12/05 03:50:23;;;;;;;35.08;23.42;;;2.30;99.90;;;;;;5091785;28;20032;-61
2021/12/05 03:52:50;;;;;;;29.20;23.33;;;2.40;99.90;;;;;;5092537;28;20101;-61
2021/12/05 03:55:17;;;;;;;30.52;22.73;;;2.40;99.90;;;;;;5087272;28;20021;-61
2021/12/05 03:58:01;;;;;;;29.25;23.05;;;2.40;99.90;;;;;;5071650;28;20466;-61
2021/12/05 04:00:31;;;;;;;30.90;23.27;;;2.30;99.90;;;;;;5071646;28;20101;-61
2021/12/05 04:03:02;;;;;;;30.40;23.80;;;2.30;99.90;;;;;;5072246;28;20040;-61
2021/12/05 04:05:31;;;;;;;32.55;24.90;;;2.40;99.90;;;;;;5071347;28;20024;-61
2021/12/05 04:07:57;;;;;;;30.23;23.30;;;2.30;99.90;;;;;;5072161;28;20145;-60
2021/12/05 04:10:25;;;;;;;29.02;22.65;;;2.30;99.90;;;;;;5071211;28;20067;-60
2021/12/05 04:12:51;;;;;;;29.80;23.80;;;2.30;99.90;;;;;;5071989;28;20070;-60
2021/12/05 04:15:17;;;;;;;28.83;22.40;;;2.30;99.90;;;;;;5072015;28;20075;-60
2021/12/05 04:17:43;;;;;;;32.05;23.17;;;2.40;99.90;;;;;;5073716;28;20032;-60
2021/12/05 04:20:12;;;;;;;27.75;22.35;;;2.30;99.90;;;;;;5075814;28;20036;-60
2021/12/05 04:22:38;;;;;;;34.28;25.05;;;2.40;99.90;;;;;;5075844;28;20021;-60
2021/12/05 04:25:09;;;;;;;27.88;22.67;;;2.30;99.90;;;;;;5076366;28;20025;-61
2021/12/05 04:27:34;;;;;;;;;;;2.30;99.90;;;;;;5076028;28;20078;-61
2021/12/05 04:30:00;;;;;;;28.48;22.77;;;2.30;99.90;;;;;;5079356;28;19908;-62
2021/12/05 04:32:26;;;;;;;33.63;24.02;;;2.30;99.90;;;;;;5087620;28;20028;-60
2021/12/05 04:34:52;;;;;;;28.42;22.98;;;2.30;99.90;;;;;;5087127;28;20035;-60
2021/12/05 04:37:17;;;;;;;32.25;23.10;;;2.30;99.90;;;;;;5089715;28;20028;-60
2021/12/05 04:39:43;;;;;;;31.33;23.40;;;2.30;99.90;;;;;;5086719;28;20037;-60
2021/12/05 04:42:09;;;;;;;28.45;22.75;;;2.30;99.90;;;;;;5084268;28;20107;-60
2021/12/05 04:44:35;;;;;;;29.65;23.00;;;2.30;99.90;;;;;;5095419;28;20028;-60
2021/12/05 04:47:01;;;;;;;30.23;22.60;;;2.30;99.90;;;;;;5096176;28;20051;-60
2021/12/05 04:49:27;;;;;;;29.73;22.45;;;2.30;99.90;;;;;;5095263;28;20020;-61
2021/12/05 04:51:54;;;;;;;34.28;24.58;;;2.40;99.90;;;;;;5095761;28;20028;-60
2021/12/05 04:54:21;;;;;;;33.20;24.15;;;2.40;99.90;;;;;;5095807;28;20047;-61
2021/12/05 04:56:48;;;;;;;30.67;22.85;;;2.40;99.90;;;;;;5094856;28;20107;-61
2021/12/05 04:59:18;;;;;;;27.65;22.50;;;2.40;99.90;;;;;;5095847;28;20032;-61
2021/12/05 05:01:48;;;;;;;30.63;23.77;;;2.40;99.90;;;;;;5095017;28;20107;-62
2021/12/05 05:04:40;;;;;;;30.40;22.35;;;2.40;99.90;;;;;;5095740;28;20028;-62
2021/12/05 05:07:10;;;;;;;30.95;22.88;;;2.40;99.90;;;;;;5095424;28;20031;-61
2021/12/05 05:09:36;;;;;;;28.75;22.30;;;2.40;99.90;;;;;;5091678;28;20030;-62
2021/12/05 05:12:02;;;;;;;29.55;21.73;;;2.40;99.90;;;;;;5081963;28;20103;-62
2021/12/05 05:14:27;;;;;;;28.67;21.00;;;2.40;99.90;;;;;;5076964;28;20017;-62
2021/12/05 05:16:55;;;;;;;29.05;23.15;;;2.40;99.90;;;;;;5075126;28;20037;-61
2021/12/05 05:19:26;;;;;;;28.50;22.70;;;2.40;99.90;;;;;;5075115;28;20024;-62
2021/12/05 05:22:20;;;;;;;;;;;2.50;99.90;;;;;;5075606;28;20067;-61
2021/12/05 05:48:33;;;;;;;28.50;22.70;;;2.60;99.90;;;;;;5074559;28;20021;-61
2021/12/05 05:51:01;;;;;;;30.42;24.15;;;2.60;99.90;;;;;;5074546;28;20116;-61
2021/12/05 05:53:27;;;;;;;29.13;23.02;;;2.60;99.90;;;;;;5075263;28;20492;-61
2021/12/05 05:55:55;;;;;;;30.73;23.23;;;2.70;99.90;;;;;;5093686;28;20118;-61
2021/12/05 05:58:25;;;;;;;29.20;22.35;;;2.70;99.90;;;;;;5094478;28;20067;-61
2021/12/05 06:01:06;;;;;;;29.50;23.35;;;2.70;99.90;;;;;;5093869;28;20385;-61
2021/12/05 06:03:50;;;;;;;30.10;23.52;;;2.70;99.90;;;;;;5093755;28;20040;-61
2021/12/05 06:06:17;;;;;;;28.13;22.83;;;2.80;99.90;;;;;;5094402;28;20031;-61
2021/12/05 06:08:45;;;;;;;29.33;23.67;;;2.80;99.90;;;;;;5093726;28;20032;-61
2021/12/05 06:11:14;;;;;;;27.95;22.10;;;2.80;99.90;;;;;;5094067;28;20469;-61
2021/12/05 06:13:40;;;;;;;28.65;23.25;;;2.80;99.90;;;;;;5093566;28;20072;-61
2021/12/05 06:16:08;;;;;;;31.40;24.02;;;2.80;99.90;;;;;;5094291;28;20035;-61
2021/12/05 06:18:34;;;;;;;29.92;23.90;;;2.90;99.90;;;;;;5093584;28;20032;-61
2021/12/05 06:21:00;;;;;;;30.73;24.13;;;2.80;99.90;;;;;;5094222;28;20031;-61
2021/12/05 06:23:26;;;;;;;29.70;23.58;;;2.90;99.90;;;;;;5093824;28;20427;-61
2021/12/05 06:25:52;;;;;;;35.22;23.23;;;2.90;99.90;;;;;;5091939;28;20472;-61
2021/12/05 06:28:26;;;;;;;29.50;23.05;;;2.80;99.90;;;;;;5094012;28;20375;-61
2021/12/05 06:31:07;;;;;;;27.95;23.35;;;2.90;99.90;;;;;;5089707;28;20035;-61
2021/12/05 06:41:54;;;;;;;29.55;23.20;;;2.80;99.90;;;;;;5082052;28;20167;-62
2021/12/05 06:47:07;;;;;;;28.73;22.10;;;2.80;99.90;;;;;;5073337;28;20091;-61
2021/12/05 06:49:33;;;;;;;29.88;21.85;;;2.80;99.90;;;;;;5072749;28;20020;-61
2021/12/05 06:51:59;;;;;;;27.77;22.05;;;2.90;99.90;;;;;;5086472;28;20472;-62
2021/12/05 06:54:24;;;;;;;26.92;22.23;;;2.90;99.90;;;;;;5093491;28;20020;-61
2021/12/05 06:56:51;;;;;;;30.38;22.88;;;2.90;99.90;;;;;;5092762;28;20042;-61
2021/12/05 06:59:17;;;;;;;30.98;23.08;;;2.90;99.90;;;;;;5093097;28;20481;-64
2021/12/05 07:01:43;;;;;;;29.23;23.00;;;2.90;99.90;;;;;;5092790;28;20035;-61
2021/12/05 07:06:52;;;;;;;29.58;22.63;;;3.00;99.90;;;;;;5092749;28;20028;-61
2021/12/05 07:09:18;;;;;;;30.98;23.05;;;3.00;99.90;;;;;;5092072;28;20102;-61
2021/12/05 07:11:57;;;;;;;28.20;21.95;;;3.10;99.90;;;;;;5086593;28;20492;-61
2021/12/05 07:17:01;;;;;;;26.58;21.25;;;3.20;99.90;;;;;;5082316;28;20033;-61
2021/12/05 07:22:14;;;;;;;21.13;17.25;;;3.20;99.90;;;;;;5072833;28;20024;-61
2021/12/05 07:40:35;;;;;;;7.57;6.13;;;3.80;99.90;;;;;;5085643;28;20039;-62
2021/12/05 07:43:05;;;;;;;5.43;4.30;;;3.90;99.90;;;;;;5075353;28;20028;-62
2021/12/05 07:45:39;;;;;;;4.32;3.92;;;4.00;99.90;;;;;;5081293;28;20043;-60
2021/12/05 07:48:15;;;;;;;4.47;4.07;;;4.00;99.90;;;;;;5083499;28;20409;-61
2021/12/05 07:53:21;;;;;;;3.88;3.58;;;4.20;99.90;;;;;;5080082;28;20457;-60
2021/12/05 07:55:50;;;;;;;4.57;4.03;;;4.20;99.90;;;;;;5078442;28;20029;-60
2021/12/05 08:01:04;;;;;;;;;;;4.30;99.90;;;;;;5071851;28;20438;-61
2021/12/05 08:14:47;;;;;;;3.17;2.88;;;4.50;99.90;;;;;;5071361;28;20043;-61
2021/12/05 08:17:19;;;;;;;4.40;3.30;;;4.50;99.90;;;;;;5072068;28;20063;-61
2021/12/05 08:19:45;;;;;;;3.95;3.15;;;4.50;99.90;;;;;;5070131;28;20401;-61
2021/12/05 08:22:12;;;;;;;3.35;3.05;;;4.50;99.90;;;;;;5071653;28;20437;-60
2021/12/05 08:24:40;;;;;;;5.80;3.30;;;4.50;99.90;;;;;;5071201;28;20027;-62
2021/12/05 08:27:07;;;;;;;5.22;4.10;;;4.60;99.90;;;;;;5071812;28;20025;-60
2021/12/05 08:29:48;;;;;;;6.68;4.03;;;4.60;99.90;;;;;;5071811;28;20103;-60
2021/12/05 08:32:28;;;;;;;4.50;3.97;;;4.60;99.90;;;;;;5071634;28;20358;-61
2021/12/05 10:09:43;;;;;;;6.32;3.22;;;4.70;99.90;;;;;;5094426;28;20024;-61
2021/12/05 10:34:02;;;;;;;7.60;2.88;;;4.70;99.90;;;;;;5073598;28;20114;-60
2021/12/05 10:36:28;;;;;;;4.53;3.10;;;4.60;99.90;;;;;;5073469;28;20029;-60
2021/12/05 10:38:59;;;;;;;6.05;3.28;;;4.60;99.90;;;;;;5073046;28;20514;-60
2021/12/05 10:44:05;;;;;;;7.13;3.30;;;4.60;99.90;;;;;;5081498;28;20090;-61
2021/12/05 10:46:35;;;;;;;4.07;3.28;;;4.60;99.90;;;;;;5084785;28;20040;-61
2021/12/05 10:49:13;;;;;;;3.58;3.08;;;4.60;99.90;;;;;;5091544;28;20154;-61
2021/12/05 10:51:43;;;;;;;5.97;3.38;;;4.60;99.90;;;;;;5077088;28;20099;-61
2021/12/05 10:54:29;;;;;;;4.72;3.33;;;4.60;99.90;;;;;;5085046;28;20380;-60
2021/12/05 10:57:04;;;;;;;6.15;3.58;;;4.60;99.90;;;;;;5087530;28;20028;-60
2021/12/05 10:59:40;;;;;;;5.00;3.33;;;4.70;99.90;;;;;;5076313;28;20044;-60
2021/12/05 11:02:09;;;;;;;5.53;3.42;;;4.70;99.90;;;;;;5084857;28;20381;-60
2021/12/05 11:04:45;;;;;;;6.10;3.80;;;4.60;99.90;;;;;;5084639;28;20025;-60
2021/12/05 11:07:15;;;;;;;6.43;4.03;;;4.70;99.90;;;;;;5076236;28;20031;-61
2021/12/05 11:09:46;;;;;;;5.72;3.80;;;4.70;99.90;;;;;;5088548;28;20503;-60
2021/12/05 11:12:31;;;;;;;5.53;3.97;;;4.70;99.90;;;;;;5081263;28;20036;-62
2021/12/05 11:15:13;;;;;;;7.95;3.92;;;4.70;99.90;;;;;;5077095;28;20032;-62
2021/12/05 11:17:42;;;;;;;6.80;4.18;;;4.70;99.90;;;;;;5076517;28;20035;-62
2021/12/05 11:20:18;;;;;;;4.68;3.20;;;4.70;99.90;;;;;;5083965;28;20047;-61
2021/12/05 11:22:47;;;;;;;8.13;3.88;;;4.70;99.90;;;;;;5079455;28;20027;-61
2021/12/05 11:25:22;;;;;;;5.55;3.35;;;4.70;99.90;;;;;;5078937;28;20486;-61
2021/12/05 11:28:00;;;;;;;7.25;3.70;;;4.70;99.90;;;;;;5081424;28;20028;-61
2021/12/05 11:30:33;;;;;;;5.20;3.30;;;4.70;99.90;;;;;;5082648;28;20024;-61
2021/12/05 11:33:07;;;;;;;7.82;3.35;;;4.70;99.90;;;;;;5092039;28;20035;-61
2021/12/05 11:35:54;;;;;;;5.43;3.15;;;4.70;99.90;;;;;;5085889;28;20027;-61
2021/12/05 11:38:28;;;;;;;5.10;2.60;;;4.70;99.90;;;;;;5072353;28;20090;-61
2021/12/05 11:41:03;;;;;;;6.75;3.13;;;4.60;99.90;;;;;;5072668;28;20503;-61
2021/12/05 11:43:56;;;;;;;7.00;2.97;;;4.70;99.90;;;;;;5092824;28;20028;-61
2021/12/05 11:46:32;;;;;;;8.43;2.85;;;4.70;99.90;;;;;;5075281;28;20180;-61
2021/12/05 11:49:04;;;;;;;4.45;2.55;;;4.60;99.90;;;;;;5074218;28;20080;-61
2021/12/05 11:51:57;;;;;;;6.68;2.67;;;4.60;99.90;;;;;;5088459;28;20029;-61
2021/12/05 11:54:23;;;;;;;6.20;3.30;;;4.60;99.90;;;;;;5072204;28;20024;-61
2021/12/05 11:57:07;;;;;;;6.32;2.55;;;4.70;99.90;;;;;;5071272;28;20093;-61
2021/12/05 11:59:47;;;;;;;5.05;2.42;;;4.70;99.90;;;;;;5074890;28;20035;-61
2021/12/05 12:02:21;;;;;;;7.03;3.35;;;4.70;99.90;;;;;;5091643;28;20051;-61
2021/12/05 12:04:56;;;;;;;9.75;3.50;;;4.70;99.90;;;;;;5092189;28;20461;-61
2021/12/05 12:07:39;;;;;;;6.60;3.70;;;4.70;99.90;;;;;;5092275;28;20526;-61
2021/12/05 12:10:23;;;;;;;6.97;3.25;;;4.80;99.90;;;;;;5091722;28;20024;-61
2021/12/05 12:12:56;;;;;;;8.63;3.13;;;4.80;99.90;;;;;;5091656;28;20038;-62
2021/12/05 12:15:24;;;;;;;9.27;4.15;;;4.80;99.90;;;;;;5092203;28;20034;-60
2021/12/05 12:17:51;;;;;;;9.13;3.78;;;4.80;99.90;;;;;;5079381;28;20089;-61
2021/12/05 12:20:22;;;;;;;8.50;3.50;;;4.80;99.90;;;;;;5071662;28;20390;-60
2021/12/05 12:22:52;;;;;;;;;;;4.80;99.90;;;;;;5070977;28;20448;-60
2021/12/05 12:25:21;;;;;;;6.13;3.15;;;4.80;99.90;;;;;;5071981;28;19904;-60
2021/12/05 12:27:48;;;;;;;7.38;3.03;;;4.80;99.90;;;;;;5071914;28;20025;-60
2021/12/05 12:30:24;;;;;;;6.53;2.92;;;4.80;99.90;;;;;;5085623;28;20028;-61
2021/12/05 12:32:53;;;;;;;7.70;3.17;;;4.70;99.90;;;;;;5073749;28;20377;-61
2021/12/05 12:35:26;;;;;;;6.88;2.90;;;4.70;99.90;;;;;;5087701;28;20104;-60
2021/12/05 12:38:09;;;;;;;6.90;3.10;;;4.70;99.90;;;;;;5080770;28;20035;-60
2021/12/05 12:40:34;;;;;;;6.07;3.20;;;4.70;99.90;;;;;;5081263;28;20050;-60
2021/12/05 12:43:00;;;;;;;5.32;3.05;;;4.70;99.90;;;;;;5092000;28;20020;-62
2021/12/05 12:45:27;;;;;;;4.15;2.80;;;4.70;99.90;;;;;;5080474;28;20063;-61
2021/12/05 12:47:58;;;;;;;6.28;2.83;;;4.70;99.90;;;;;;5086141;28;20032;-61
2021/12/05 12:50:52;;;;;;;5.90;2.65;;;4.70;99.90;;;;;;5088781;28;20028;-60
2021/12/05 12:53:29;;;;;;;8.18;2.80;;;4.70;99.90;;;;;;5079660;28;20024;-60
2021/12/05 12:55:58;;;;;;;6.35;2.78;;;4.70;99.90;;;;;;5085440;28;20039;-62
2021/12/05 12:58:59;;;;;;;6.00;2.95;;;4.70;99.90;;;;;;5088688;28;20039;-61
2021/12/05 13:12:48;;;;;;;5.38;3.40;;;4.70;99.90;;;;;;5088656;28;20020;-61
2021/12/05 13:15:33;;;;;;;7.45;3.03;;;4.70;99.90;;;;;;5082097;28;20032;-60
2021/12/05 13:18:01;;;;;;;7.05;3.38;;;4.70;99.90;;;;;;5083238;28;20036;-61
2021/12/05 13:20:54;;;;;;;5.88;3.05;;;4.70;99.90;;;;;;5091171;28;20111;-61
2021/12/05 13:23:28;;;;;;;8.18;3.45;;;4.70;99.90;;;;;;5083659;28;20020;-61
2021/12/05 13:26:06;;;;;;;6.70;3.17;;;4.80;99.90;;;;;;5076186;28;20028;-61
2021/12/05 13:28:36;;;;;;;7.70;3.35;;;4.70;99.90;;;;;;5091076;28;20401;-63
2021/12/05 13:31:27;;;;;;;6.47;3.10;;;4.80;99.90;;;;;;5080959;28;20031;-63
2021/12/05 13:34:14;;;;;;;5.88;3.42;;;4.80;99.90;;;;;;5094111;28;20035;-63
2021/12/05 13:36:41;;;;;;;7.82;3.22;;;4.80;99.90;;;;;;5094456;28;20080;-63
2021/12/05 13:39:38;;;;;;;8.25;3.55;;;4.80;99.90;;;;;;5093739;28;20104;-63
2021/12/05 13:42:27;;;;;;;8.00;3.53;;;4.80;99.90;;;;;;5087346;28;20031;-63
2021/12/05 13:45:14;;;;;;;6.00;3.15;;;4.80;99.90;;;;;;5093770;28;20079;-64
2021/12/05 13:47:47;;;;;;;4.80;2.80;;;4.80;99.90;;;;;;5094374;28;20032;-63
2021/12/05 13:50:23;;;;;;;6.18;3.03;;;4.80;99.90;;;;;;5092595;28;20070;-62
2021/12/05 13:52:57;;;;;;;4.88;2.92;;;4.80;99.90;;;;;;5094641;28;20063;-63
2021/12/05 13:55:43;;;;;;;10.30;4.05;;;4.80;99.90;;;;;;5094579;28;20020;-63
2021/12/05 13:58:21;;;;;;;9.13;4.13;;;4.80;99.90;;;;;;5093687;28;20140;-63
2021/12/05 14:00:59;;;;;;;7.80;3.60;;;4.80;99.90;;;;;;5086764;28;20036;-62
2021/12/05 14:03:47;;;;;;;5.78;3.20;;;4.80;99.90;;;;;;5082992;28;20024;-63
2021/12/05 14:06:42;;;;;;;6.35;2.80;;;4.80;99.90;;;;;;5089356;28;20028;-63
2021/12/05 14:09:31;;;;;;;6.55;3.58;;;4.80;99.90;;;;;;5084632;28;20055;-63
2021/12/05 14:11:57;;;;;;;5.60;3.05;;;4.70;99.90;;;;;;5093930;28;20028;-64
2021/12/05 14:14:50;;;;;;;4.63;2.63;;;4.70;99.90;;;;;;5094026;28;20429;-62
2021/12/05 14:17:22;;;;;;;5.43;2.95;;;4.70;99.90;;;;;;5093117;28;20028;-63
2021/12/05 14:20:09;;;;;;;6.18;3.38;;;4.70;99.90;;;;;;5093898;28;20028;-62
2021/12/05 14:22:36;;;;;;;6.50;3.20;;;4.70;99.90;;;;;;5093626;28;20029;-63
2021/12/05 14:25:09;;;;;;;9.82;4.38;;;4.70;99.90;;;;;;5075225;28;20016;-64
2021/12/05 14:27:38;;;;;;;8.95;3.63;;;4.60;99.90;;;;;;5073634;28;20056;-64
2021/12/05 14:30:07;;;;;;;5.28;3.95;;;4.60;99.90;;;;;;5072909;28;20160;-62
2021/12/05 14:32:39;;;;;;;9.30;3.95;;;4.60;99.90;;;;;;5073485;28;20113;-62
2021/12/05 14:35:15;;;;;;;7.18;4.22;;;4.60;99.90;;;;;;5072933;28;20021;-62
2021/12/05 14:37:42;;;;;;;8.57;4.22;;;4.60;99.90;;;;;;5073469;28;20032;-63
2021/12/05 14:40:11;;;;;;;10.05;4.65;;;4.60;99.90;;;;;;5072617;28;20024;-63
2021/12/05 14:42:41;;;;;;;7.20;4.57;;;4.60;99.90;;;;;;5088980;28;20124;-63
2021/12/05 14:45:18;;;;;;;5.95;4.40;;;4.60;99.90;;;;;;5092542;28;20354;-62
2021/12/05 14:47:46;;;;;;;5.95;4.10;;;4.60;99.90;;;;;;5093382;28;20032;-62
2021/12/05 14:50:16;;;;;;;6.45;4.50;;;4.60;99.90;;;;;;5092785;28;20020;-62
2021/12/05 14:52:44;;;;;;;10.50;4.75;;;4.60;99.90;;;;;;5093219;28;20059;-62
2021/12/05 14:55:12;;;;;;;7.13;4.65;;;4.60;99.90;;;;;;5092762;28;20111;-62
2021/12/05 14:57:47;;;;;;;6.68;4.45;;;4.60;99.90;;;;;;5093211;28;20028;-62
2021/12/05 15:00:42;;;;;;;13.07;5.75;;;4.60;99.90;;;;;;5092582;28;20037;-63
2021/12/05 15:03:38;;;;;;;10.05;4.90;;;4.50;99.90;;;;;;5092655;28;20044;-63
2021/12/05 15:06:07;;;;;;;8.05;5.40;;;4.60;99.90;;;;;;5075856;28;20364;-64
2021/12/05 15:08:35;;;;;;;7.57;5.28;;;4.50;99.90;;;;;;5093115;28;20093;-63
2021/12/05 15:11:04;;;;;;;7.70;5.20;;;4.60;99.90;;;;;;5092141;28;20484;-64
2021/12/05 15:13:30;;;;;;;9.90;4.93;;;4.50;99.90;;;;;;5092825;28;20437;-63
2021/12/05 15:15:57;;;;;;;8.18;5.72;;;4.50;99.90;;;;;;5093202;28;20082;-63
2021/12/05 15:18:29;;;;;;;11.75;6.60;;;4.60;99.90;;;;;;5091966;28;20036;-64
2021/12/05 15:20:55;;;;;;;;;;;4.60;99.90;;;;;;5093297;28;20050;-64
2021/12/05 15:23:25;;;;;;;9.32;6.75;;;4.60;99.90;;;;;;5092340;28;19904;-64
2021/12/05 15:25:51;;;;;;;12.88;7.05;;;4.60;99.90;;;;;;5092890;28;20028;-64
2021/12/05 15:28:18;;;;;;;9.02;6.93;;;4.60;99.90;;;;;;5087898;28;20030;-64
2021/12/05 15:30:47;;;;;;;13.93;6.80;;;4.60;99.90;;;;;;5072451;28;20036;-64
2021/12/05 15:33:21;;;;;;;11.73;6.38;;;4.60;99.90;;;;;;5071858;28;20025;-63
2021/12/05 15:35:50;;;;;;;9.48;6.05;;;4.60;99.90;;;;;;5073328;28;20318;-63
2021/12/05 15:38:24;;;;;;;9.80;6.00;;;4.60;99.90;;;;;;5091402;28;20040;-63
2021/12/05 15:40:53;;;;;;;9.27;6.30;;;4.60;99.90;;;;;;5091615;28;20020;-63
2021/12/05 15:43:21;;;;;;;9.40;5.78;;;4.60;99.90;;;;;;5071936;28;20461;-63
2021/12/05 15:45:51;;;;;;;10.32;6.10;;;4.60;99.90;;;;;;5072208;28;20049;-63
2021/12/05 15:48:28;;;;;;;8.57;5.97;;;4.60;99.90;;;;;;5071640;28;20032;-63
2021/12/05 15:50:56;;;;;;;8.85;6.03;;;4.70;99.90;;;;;;5072125;28;20024;-63
2021/12/05 15:53:23;;;;;;;9.98;5.75;;;4.70;99.90;;;;;;5071666;28;20107;-63
2021/12/05 15:55:57;;;;;;;10.00;6.00;;;4.70;99.90;;;;;;5072124;28;20028;-63
2021/12/05 15:58:45;;;;;;;11.18;6.00;;;4.70;99.90;;;;;;5071373;28;20036;-63
2021/12/05 16:01:18;;;;;;;10.63;6.50;;;4.70;99.90;;;;;;5076547;28;20063;-64
2021/12/05 16:03:47;;;;;;;10.38;5.75;;;4.70;99.90;;;;;;5085134;28;20043;-64
2021/12/05 16:06:16;;;;;;;8.38;5.97;;;4.70;99.90;;;;;;5073376;28;20029;-64
2021/12/05 16:08:43;;;;;;;9.07;5.43;;;4.70;99.90;;;;;;5088394;28;20039;-64
2021/12/05 16:11:15;;;;;;;9.02;6.22;;;4.70;99.90;;;;;;5075599;28;20024;-63
2021/12/05 16:13:42;;;;;;;10.00;6.07;;;4.70;99.90;;;;;;5082805;28;20025;-63
2021/12/05 16:16:12;;;;;;;8.57;6.80;;;4.70;99.90;;;;;;5083706;28;20020;-63
2021/12/05 16:18:40;;;;;;;9.90;6.43;;;4.70;99.90;;;;;;5092065;28;20036;-63
2021/12/05 16:21:20;;;;;;;10.27;6.60;;;4.70;99.90;;;;;;5091527;28;20074;-63
2021/12/05 16:23:46;;;;;;;8.80;6.80;;;4.70;99.90;;;;;;5086547;28;20028;-63
2021/12/05 16:26:23;;;;;;;9.07;6.22;;;4.70;99.90;;;;;;5090880;28;20100;-64
2021/12/05 16:28:55;;;;;;;11.52;7.75;;;4.70;99.90;;;;;;5071631;28;20025;-63
2021/12/05 16:31:24;;;;;;;12.75;7.63;;;4.70;99.90;;;;;;5080381;28;20099;-63
2021/12/05 16:33:56;;;;;;;14.35;7.68;;;4.70;99.90;;;;;;5091893;28;20024;-63
2021/12/05 16:36:31;;;;;;;10.90;7.28;;;4.70;99.90;;;;;;5081139;28;20032;-63
2021/12/05 16:39:05;;;;;;;14.40;7.32;;;4.70;99.90;;;;;;5086674;28;20032;-63
2021/12/05 16:41:33;;;;;;;9.75;6.57;;;4.70;99.90;;;;;;5084883;28;20028;-63
2021/12/05 16:44:10;;;;;;;9.52;7.60;;;4.70;99.90;;;;;;5078548;28;20052;-63
2021/12/05 16:46:42;;;;;;;8.68;6.70;;;4.70;99.90;;;;;;5079582;28;20481;-63
2021/12/05 16:49:11;;;;;;;9.10;6.93;;;4.70;99.90;;;;;;5087359;28;20024;-63
2021/12/05 16:51:53;;;;;;;11.65;7.47;;;4.70;99.90;;;;;;5087677;28;20024;-63
2021/12/05 16:54:22;;;;;;;;;;;4.70;99.90;;;;;;5081054;28;20039;-63
2021/12/05 16:57:07;;;;;;;10.20;7.13;;;4.70;99.90;;;;;;5077676;28;19912;-63
2021/12/05 16:59:51;;;;;;;10.90;7.55;;;4.70;99.90;;;;;;5087959;28;20024;-63
2021/12/05 17:02:19;;;;;;;11.02;7.15;;;4.70;99.90;;;;;;5080064;28;20028;-64
2021/12/05 17:05:22;;;;;;;12.68;7.15;;;4.70;99.90;;;;;;5091472;28;20025;-63
2021/12/05 17:07:50;;;;;;;9.52;6.78;;;4.70;99.90;;;;;;5071529;28;20039;-63
2021/12/05 17:10:25;;;;;;;12.38;7.28;;;4.70;99.90;;;;;;5070849;28;20524;-63
2021/12/05 17:12:57;;;;;;;8.50;6.45;;;4.70;99.90;;;;;;5071353;28;20028;-63
2021/12/05 17:15:30;;;;;;;8.18;6.18;;;4.70;99.90;;;;;;5070841;28;20476;-63
2021/12/05 17:18:04;;;;;;;9.30;6.93;;;4.70;99.90;;;;;;5071187;28;20039;-63
2021/12/05 17:20:54;;;;;;;7.32;6.50;;;4.70;99.90;;;;;;5073504;28;20025;-62
2021/12/05 17:23:40;;;;;;;11.10;7.60;;;4.60;99.90;;;;;;5070809;28;20033;-63
2021/12/05 17:26:24;;;;;;;12.18;6.65;;;4.60;99.90;;;;;;5073327;28;20547;-64
2021/12/05 17:29:00;;;;;;;9.23;7.13;;;4.60;99.90;;;;;;5074586;28;20024;-62
2021/12/05 17:31:51;;;;;;;7.72;6.82;;;4.60;99.90;;;;;;5074257;28;20043;-62
2021/12/05 17:34:27;;;;;;;8.75;7.30;;;4.60;99.90;;;;;;5072980;28;20033;-63
2021/12/05 17:36:56;;;;;;;9.68;7.63;;;4.50;99.90;;;;;;5074459;28;20037;-63
2021/12/05 17:39:27;;;;;;;9.15;7.57;;;4.50;99.90;;;;;;5084535;28;20028;-63
2021/12/05 17:42:00;;;;;;;9.02;7.80;;;4.50;99.90;;;;;;5090257;28;20431;-63
2021/12/05 17:44:26;;;;;;;11.88;8.80;;;4.50;99.90;;;;;;5094166;28;20040;-64
2021/12/05 17:46:54;;;;;;;10.55;7.90;;;4.40;99.90;;;;;;5094141;28;20056;-64
2021/12/05 17:49:23;;;;;;;9.88;8.73;;;4.40;99.90;;;;;;5093995;28;20094;-63
2021/12/05 17:51:48;;;;;;;12.65;9.40;;;4.40;99.90;;;;;;5090243;28;20032;-64
2021/12/05 17:57:17;;;;;;;12.02;9.23;;;4.40;99.90;;;;;;5072061;28;20045;-63
2021/12/05 18:00:00;;;;;;;10.60;7.90;;;4.40;99.90;;;;;;5073998;28;20323;-63
2021/12/05 18:02:46;;;;;;;12.85;9.02;;;4.40;99.90;;;;;;5089770;28;20016;-63
2021/12/05 18:05:18;;;;;;;11.05;8.82;;;4.40;99.90;;;;;;5090277;28;20039;-63
2021/12/05 18:07:45;;;;;;;12.48;8.63;;;4.40;99.90;;;;;;5074278;28;20381;-62
2021/12/05 18:10:13;;;;;;;12.05;9.52;;;4.40;99.90;;;;;;5072962;28;20166;-63
2021/12/05 18:12:39;;;;;;;11.00;8.55;;;4.40;99.90;;;;;;5073697;28;20100;-64
2021/12/05 18:15:16;;;;;;;10.70;8.02;;;4.40;99.90;;;;;;5088991;28;20107;-62
2021/12/05 18:17:42;;;;;;;9.00;6.50;;;4.40;99.90;;;;;;5092645;28;20119;-63
2021/12/05 18:20:11;;;;;;;9.40;7.10;;;4.40;99.90;;;;;;5093967;28;20103;-63
2021/12/05 18:22:38;;;;;;;10.38;7.15;;;4.40;99.90;;;;;;5093879;28;20107;-64
2021/12/05 18:25:04;;;;;;;8.18;6.75;;;4.40;99.90;;;;;;5093490;28;20453;-63
2021/12/05 18:27:30;;;;;;;8.43;7.10;;;4.40;99.90;;;;;;5093204;28;20053;-63
2021/12/05 18:29:57;;;;;;;9.48;7.43;;;4.30;99.90;;;;;;5084712;28;20127;-63
2021/12/05 18:32:23;;;;;;;11.80;7.80;;;4.40;99.90;;;;;;5072606;28;20453;-63
2021/12/05 18:34:49;;;;;;;10.07;7.85;;;4.40;99.90;;;;;;5073290;28;20048;-64
2021/12/05 18:37:15;;;;;;;12.45;8.32;;;4.40;99.90;;;;;;5072140;28;20385;-62
2021/12/05 18:39:48;;;;;;;12.63;8.20;;;4.40;99.90;;;;;;5073099;28;20104;-62
2021/12/05 18:42:16;;;;;;;13.10;8.95;;;4.40;99.90;;;;;;5085221;28;20376;-62
2021/12/05 18:44:47;;;;;;;13.70;8.10;;;4.40;99.90;;;;;;5093326;28;20024;-63
2021/12/05 18:47:15;;;;;;;11.13;8.27;;;4.40;99.90;;;;;;5093082;28;20168;-62
2021/12/05 18:49:41;;;;;;;12.40;8.73;;;4.40;99.90;;;;;;5093361;28;20032;-62
2021/12/05 18:52:07;;;;;;;13.00;8.68;;;4.40;99.90;;;;;;5087282;28;20035;-64
2021/12/05 18:54:35;;;;;;;11.45;8.35;;;4.40;99.90;;;;;;5082703;28;20191;-63
2021/12/05 18:57:02;;;;;;;13.55;8.57;;;4.40;99.90;;;;;;5079551;28;20465;-63
2021/12/05 18:59:31;;;;;;;10.40;8.73;;;4.40;99.90;;;;;;5072297;28;20040;-63